createdAt,value
2018-11-26T00:00:36.611Z,95.72
2018-11-26T00:03:44.720Z,95.85
2018-11-26T00:06:52.667Z,95.89
2018-11-26T00:09:23.690Z,95.59
2018-11-26T00:12:12.188Z,95.38
2018-11-26T00:14:41.039Z,95.68
2018-11-26T00:17:09.887Z,95.94
2018-11-26T00:19:38.733Z,95.97
2018-11-26T00:22:07.561Z,95.98
2018-11-26T00:24:36.244Z,96.12
2018-11-26T00:27:05.528Z,95.96
2018-11-26T00:29:55.334Z,95.97
2018-11-26T00:32:23.964Z,95.95
2018-11-26T00:34:52.831Z,96.39
2018-11-26T00:37:21.617Z,96.66
2018-11-26T00:39:50.513Z,96.57
2018-11-26T00:42:19.357Z,96.54
2018-11-26T00:44:48.555Z,96.57
2018-11-26T00:47:36.915Z,96.29
2018-11-26T00:50:26.128Z,96.50
2018-11-26T00:52:56.258Z,96.31
2018-11-26T00:55:24.986Z,96.30
2018-11-26T00:57:53.822Z,96.05
2018-11-26T01:00:42.306Z,95.94
2018-11-26T01:03:11.006Z,96.04
2018-11-26T01:05:40.766Z,95.93
2018-11-26T01:08:09.612Z,95.97
2018-11-26T01:10:58.253Z,96.12
2018-11-26T01:16:37.825Z,95.87
2018-11-26T01:19:07.382Z,96.01
2018-11-26T01:21:36.116Z,96.34
2018-11-26T01:24:04.943Z,96.30
2018-11-26T01:26:33.697Z,96.05
2018-11-26T01:29:02.438Z,96.31
2018-11-26T01:31:31.892Z,96.55
2018-11-26T01:34:02.284Z,96.58
2018-11-26T01:36:31.141Z,96.35
2018-11-26T01:38:59.983Z,95.94
2018-11-26T01:41:28.709Z,95.67
2018-11-26T01:43:57.518Z,95.68
2018-11-26T01:46:26.267Z,95.74
2018-11-26T01:48:55.187Z,95.62
2018-11-26T01:51:23.915Z,95.72
2018-11-26T01:57:00.180Z,95.92
2018-11-26T01:59:49.301Z,95.62
2018-11-26T02:05:46.976Z,95.57
2018-11-26T02:08:15.604Z,95.92
2018-11-26T02:10:44.273Z,95.93
2018-11-26T02:13:13.156Z,96.13
2018-11-26T02:15:42.681Z,96.20
2018-11-26T02:18:11.746Z,96.38
2018-11-26T02:20:40.434Z,96.35
2018-11-26T02:23:10.153Z,96.89
2018-11-26T02:25:38.934Z,96.65
2018-11-26T02:28:08.902Z,96.69
2018-11-26T02:30:59.085Z,96.69
2018-11-26T02:33:27.705Z,97.00
2018-11-26T02:35:56.368Z,97.32
2018-11-26T02:38:25.098Z,97.73
2018-11-26T02:40:53.765Z,97.99
2018-11-26T02:43:22.398Z,98.09
2018-11-26T02:45:51.092Z,97.64
2018-11-26T02:48:38.726Z,97.38
2018-11-26T02:51:07.606Z,96.94
2018-11-26T02:53:55.292Z,96.81
2018-11-26T02:56:44.915Z,97.01
2018-11-26T02:59:14.586Z,97.06
2018-11-26T03:01:43.199Z,97.01
2018-11-26T03:04:15.428Z,96.98
2018-11-26T03:06:44.509Z,97.15
2018-11-26T03:09:13.495Z,97.39
2018-11-26T03:17:04.736Z,97.36
2018-11-26T03:19:33.391Z,97.24
2018-11-26T03:22:02.250Z,97.04
2018-11-26T03:24:31.158Z,97.64
2018-11-26T03:33:04.294Z,97.98
2018-11-26T03:35:32.819Z,97.81
2018-11-26T03:38:40.941Z,97.57
2018-11-26T03:41:29.028Z,97.44
2018-11-26T03:43:57.658Z,97.23
2018-11-26T03:46:26.325Z,97.35
2018-11-26T03:48:54.994Z,97.91
2018-11-26T03:51:23.644Z,97.75
2018-11-26T03:56:39.972Z,96.90
2018-11-26T03:59:30.338Z,96.66
2018-11-26T04:02:01.175Z,96.60
2018-11-26T04:04:31.055Z,95.74
2018-11-26T04:06:59.898Z,95.95
2018-11-26T04:09:28.638Z,96.11
2018-11-26T04:11:57.573Z,95.77
2018-11-26T04:14:26.665Z,95.99
2018-11-26T04:17:14.380Z,96.51
2018-11-26T04:19:43.088Z,95.40
2018-11-26T04:22:13.516Z,95.41
2018-11-26T04:25:01.848Z,95.38
2018-11-26T04:27:30.646Z,94.95
2018-11-26T04:29:59.540Z,95.02
2018-11-26T04:32:28.393Z,95.17
2018-11-26T04:34:57.311Z,95.19
2018-11-26T04:37:26.056Z,95.15
2018-11-26T04:39:55.023Z,94.87
2018-11-26T04:42:23.735Z,94.64
2018-11-26T04:44:54.460Z,93.98
2018-11-26T04:47:43.681Z,94.25
2018-11-26T04:50:13.110Z,94.87
2018-11-26T04:52:41.732Z,95.34
2018-11-26T04:55:11.492Z,95.62
2018-11-26T04:57:42.608Z,95.26
2018-11-26T05:00:11.900Z,95.62
2018-11-26T05:05:16.679Z,95.42
2018-11-26T05:07:45.508Z,94.77
2018-11-26T05:10:14.862Z,94.59
2018-11-26T05:15:50.817Z,94.78
2018-11-26T05:18:39.327Z,94.87
2018-11-26T05:21:28.143Z,95.36
2018-11-26T05:24:00.043Z,95.28
2018-11-26T05:29:18.634Z,95.11
2018-11-26T05:34:35.717Z,95.09
2018-11-26T05:37:04.585Z,94.88
2018-11-26T05:39:33.372Z,95.14
2018-11-26T05:42:02.201Z,95.14
2018-11-26T05:44:31.017Z,94.99
2018-11-26T05:46:59.840Z,95.23
2018-11-26T05:49:29.371Z,94.99
2018-11-26T05:51:58.035Z,94.80
2018-11-26T05:54:26.888Z,95.64
2018-11-26T05:57:17.045Z,95.44
2018-11-26T06:00:05.852Z,95.24
2018-11-26T06:02:34.873Z,94.59
2018-11-26T06:05:03.714Z,93.86
2018-11-26T06:07:32.444Z,94.17
2018-11-26T06:10:20.381Z,94.65
2018-11-26T06:12:49.017Z,95.22
2018-11-26T06:17:51.970Z,94.11
2018-11-26T06:20:20.768Z,94.01
2018-11-26T06:22:49.505Z,94.50
2018-11-26T06:25:19.662Z,94.32
2018-11-26T06:27:48.436Z,94.36
2018-11-26T06:30:20.368Z,94.19
2018-11-26T06:35:43.620Z,94.05
2018-11-26T06:38:12.308Z,93.57
2018-11-26T06:40:41.068Z,93.82
2018-11-26T06:43:29.270Z,93.46
2018-11-26T06:46:17.965Z,93.57
2018-11-26T06:48:46.594Z,93.31
2018-11-26T06:51:15.278Z,92.65
2018-11-26T06:53:43.985Z,92.36
2018-11-26T06:56:12.909Z,93.06
2018-11-26T06:58:41.794Z,93.35
2018-11-26T07:01:10.502Z,93.53
2018-11-26T07:03:39.237Z,93.17
2018-11-26T07:06:08.159Z,93.37
2018-11-26T07:08:37.066Z,93.22
2018-11-26T07:11:09.106Z,93.07
2018-11-26T07:13:58.387Z,92.54
2018-11-26T07:16:27.178Z,92.51
2018-11-26T07:18:56.134Z,93.10
2018-11-26T07:21:24.748Z,93.18
2018-11-26T07:23:55.113Z,93.73
2018-11-26T07:26:27.784Z,93.78
2018-11-26T07:29:16.060Z,93.07
2018-11-26T07:31:44.987Z,93.84
2018-11-26T07:37:23.490Z,93.36
2018-11-26T07:39:53.098Z,93.25
2018-11-26T07:42:22.349Z,93.83
2018-11-26T07:44:50.984Z,93.45
2018-11-26T07:47:19.775Z,93.60
2018-11-26T07:50:29.254Z,93.69
2018-11-26T07:52:58.320Z,93.71
2018-11-26T07:55:27.238Z,94.04
2018-11-26T07:57:56.090Z,94.14
2018-11-26T08:00:24.771Z,93.85
2018-11-26T08:02:53.600Z,94.23
2018-11-26T08:08:54.179Z,94.73
2018-11-26T08:11:22.864Z,94.77
2018-11-26T08:13:51.589Z,94.72
2018-11-26T08:16:20.426Z,95.13
2018-11-26T08:18:49.304Z,95.26
2018-11-26T08:21:18.570Z,94.95
2018-11-26T08:23:48.979Z,94.80
2018-11-26T08:26:57.701Z,94.62
2018-11-26T08:29:46.794Z,94.02
2018-11-26T08:32:16.528Z,94.29
2018-11-26T08:34:45.483Z,93.94
2018-11-26T08:40:43.708Z,94.42
2018-11-26T08:43:51.987Z,94.53
2018-11-26T08:46:41.283Z,94.59
2018-11-26T08:49:28.893Z,94.70
2018-11-26T08:51:57.723Z,94.49
2018-11-26T08:54:26.624Z,94.35
2018-11-26T08:56:55.365Z,93.98
2018-11-26T08:59:24.307Z,93.92
2018-11-26T09:02:11.971Z,94.44
2018-11-26T09:04:59.633Z,94.55
2018-11-26T09:07:28.813Z,94.46
2018-11-26T09:10:18.321Z,94.30
2018-11-26T09:13:25.712Z,94.26
2018-11-26T09:18:29.725Z,93.71
2018-11-26T09:20:58.531Z,93.52
2018-11-26T09:23:27.420Z,93.83
2018-11-26T09:25:56.317Z,93.78
2018-11-26T09:28:27.256Z,93.14
2018-11-26T09:31:36.296Z,93.17
2018-11-26T09:34:25.340Z,93.59
2018-11-26T09:37:13.329Z,93.90
2018-11-26T09:39:42.089Z,93.64
2018-11-26T09:42:10.814Z,93.30
2018-11-26T09:45:18.894Z,94.16
2018-11-26T09:47:47.593Z,94.36
2018-11-26T09:50:21.250Z,92.97
2018-11-26T09:52:50.042Z,93.09
2018-11-26T09:55:19.072Z,92.54
2018-11-26T09:58:07.295Z,92.70
2018-11-26T10:00:36.419Z,92.72
2018-11-26T10:03:43.876Z,91.44
2018-11-26T10:06:12.612Z,91.62
2018-11-26T10:11:49.012Z,92.66
2018-11-26T10:14:37.401Z,92.47
2018-11-26T10:17:26.701Z,92.03
2018-11-26T10:19:56.022Z,91.57
2018-11-26T10:22:24.702Z,92.26
2018-11-26T10:24:53.651Z,91.94
2018-11-26T10:32:47.380Z,91.15
2018-11-26T10:35:16.932Z,90.97
2018-11-26T10:37:45.687Z,91.25
2018-11-26T10:40:28.202Z,92.16
2018-11-26T10:46:05.071Z,92.23
2018-11-26T10:48:33.830Z,92.12
2018-11-26T10:51:03.193Z,91.95
2018-11-26T10:53:32.081Z,91.74
2018-11-26T10:56:01.276Z,92.05
2018-11-26T10:58:30.584Z,91.39
2018-11-26T11:03:55.834Z,91.73
2018-11-26T11:06:25.536Z,92.26
2018-11-26T11:08:54.440Z,92.68
2018-11-26T11:11:23.870Z,92.81
2018-11-26T11:13:52.321Z,92.97
2018-11-26T11:19:31.109Z,91.89
2018-11-26T11:21:59.805Z,91.61
2018-11-26T11:24:30.550Z,92.40
2018-11-26T11:27:18.519Z,92.11
2018-11-26T11:29:47.841Z,92.07
2018-11-26T11:32:16.709Z,91.88
2018-11-26T11:35:05.796Z,91.89
2018-11-26T11:37:34.663Z,91.78
2018-11-26T11:40:41.845Z,91.93
2018-11-26T11:46:05.103Z,93.03
2018-11-26T11:48:33.859Z,92.87
2018-11-26T11:51:03.128Z,92.78
2018-11-26T11:53:31.968Z,93.23
2018-11-26T11:56:21.529Z,93.09
2018-11-26T11:58:50.386Z,92.59
2018-11-26T12:01:38.979Z,92.92
2018-11-26T12:04:07.981Z,93.77
2018-11-26T12:06:56.246Z,93.04
2018-11-26T12:09:24.948Z,92.43
2018-11-26T12:11:54.954Z,92.54
2018-11-26T12:14:23.760Z,92.59
2018-11-26T12:16:53.132Z,92.64
2018-11-26T12:19:22.005Z,92.95
2018-11-26T12:21:50.941Z,93.36
2018-11-26T12:24:19.984Z,93.85
2018-11-26T12:26:50.882Z,93.37
2018-11-26T12:29:17.816Z,93.23
2018-11-26T12:32:06.043Z,93.64
2018-11-26T12:34:35.256Z,93.74
2018-11-26T12:37:04.030Z,93.85
2018-11-26T12:39:52.853Z,93.41
2018-11-26T12:42:21.794Z,93.23
2018-11-26T12:44:51.349Z,93.63
2018-11-26T12:47:20.276Z,92.84
2018-11-26T12:49:51.209Z,92.88
2018-11-26T12:52:40.169Z,93.29
2018-11-26T12:55:28.150Z,93.21
2018-11-26T12:58:16.367Z,93.49
2018-11-26T13:03:52.785Z,94.20
2018-11-26T13:06:21.207Z,94.42
2018-11-26T13:08:49.907Z,94.75
2018-11-26T13:11:18.561Z,94.03
2018-11-26T13:13:47.198Z,93.92
2018-11-26T13:16:35.181Z,93.53
2018-11-26T13:19:03.822Z,93.61
2018-11-26T13:21:32.763Z,93.56
2018-11-26T13:27:10.101Z,94.20
2018-11-26T13:29:38.850Z,94.56
2018-11-26T13:32:26.843Z,94.12
2018-11-26T13:34:55.676Z,93.67
2018-11-26T13:37:24.519Z,93.33
2018-11-26T13:39:53.285Z,93.31
2018-11-26T13:42:21.999Z,92.78
2018-11-26T13:44:50.773Z,93.48
2018-11-26T13:47:19.762Z,93.95
2018-11-26T13:49:48.602Z,94.05
2018-11-26T13:52:17.323Z,94.51
2018-11-26T13:54:46.129Z,94.42
2018-11-26T13:57:14.967Z,94.70
2018-11-26T13:59:43.857Z,94.10
2018-11-26T14:02:12.585Z,94.53
2018-11-26T14:04:41.487Z,94.13
2018-11-26T14:07:10.227Z,93.82
2018-11-26T14:09:39.159Z,94.97
2018-11-26T14:12:08.041Z,95.39
2018-11-26T14:14:36.967Z,94.92
2018-11-26T14:17:05.814Z,94.66
2018-11-26T14:19:34.728Z,94.36
2018-11-26T14:22:03.599Z,95.20
2018-11-26T14:24:32.469Z,95.81
2018-11-26T14:27:01.398Z,96.04
2018-11-26T14:29:30.189Z,94.51
2018-11-26T14:31:59.060Z,94.06
2018-11-26T14:34:27.917Z,93.75
2018-11-26T14:36:56.753Z,94.46
2018-11-26T14:39:25.539Z,94.66
2018-11-26T14:41:54.281Z,94.55
2018-11-26T14:44:23.127Z,94.11
2018-11-26T14:46:52.057Z,93.71
2018-11-26T14:49:20.985Z,93.51
2018-11-26T14:51:49.666Z,93.91
2018-11-26T14:54:18.337Z,93.92
2018-11-26T14:56:47.112Z,94.50
2018-11-26T14:59:16.032Z,95.13
2018-11-26T15:01:44.928Z,95.03
2018-11-26T15:04:13.854Z,94.35
2018-11-26T15:06:42.563Z,94.69
2018-11-26T15:09:11.496Z,95.09
2018-11-26T15:11:40.337Z,94.88
2018-11-26T15:14:09.174Z,95.17
2018-11-26T15:16:37.915Z,94.92
2018-11-26T15:19:06.754Z,94.69
2018-11-26T15:21:35.636Z,94.86
2018-11-26T15:24:04.534Z,95.09
2018-11-26T15:26:33.321Z,95.25
2018-11-26T15:29:02.064Z,95.93
2018-11-26T15:31:30.995Z,95.94
2018-11-26T15:33:59.746Z,95.70
2018-11-26T15:36:28.532Z,95.51
2018-11-26T15:38:57.454Z,95.61
2018-11-26T15:41:26.462Z,95.42
2018-11-26T15:43:55.102Z,95.41
2018-11-26T15:46:23.923Z,95.08
2018-11-26T15:48:52.669Z,95.36
2018-11-26T15:51:21.602Z,95.32
2018-11-26T15:53:50.245Z,95.53
2018-11-26T15:56:19.173Z,95.85
2018-11-26T15:58:47.972Z,96.78
2018-11-26T16:01:16.822Z,96.73
2018-11-26T16:03:45.528Z,96.28
2018-11-26T16:06:21.440Z,95.23
2018-11-26T16:08:50.115Z,95.08
2018-11-26T16:11:18.863Z,95.10
2018-11-26T16:13:47.486Z,95.34
2018-11-26T16:16:16.173Z,95.97
2018-11-26T16:18:44.894Z,96.98
2018-11-26T16:21:13.592Z,97.70
2018-11-26T16:23:42.263Z,98.29
2018-11-26T16:26:10.981Z,98.65
2018-11-26T16:28:39.615Z,98.31
2018-11-26T16:31:08.321Z,98.29
2018-11-26T16:33:36.998Z,98.00
2018-11-26T16:36:06.194Z,97.27
2018-11-26T16:38:34.925Z,96.73
2018-11-26T16:41:03.623Z,96.22
2018-11-26T16:43:32.410Z,96.35
2018-11-26T16:46:01.062Z,97.04
2018-11-26T16:48:29.741Z,97.64
2018-11-26T16:50:58.567Z,96.24
2018-11-26T16:53:27.219Z,95.87
2018-11-26T16:55:57.683Z,95.78
2018-11-26T16:58:27.592Z,95.68
2018-11-26T17:00:58.976Z,95.15
2018-11-26T17:03:27.780Z,96.08
2018-11-26T17:05:58.324Z,96.97
2018-11-26T17:08:26.955Z,97.92
2018-11-26T17:10:55.783Z,98.71
2018-11-26T17:13:24.737Z,98.23
2018-11-26T17:15:53.484Z,98.13
2018-11-26T17:18:22.347Z,98.47
2018-11-26T17:20:50.999Z,98.99
2018-11-26T17:23:19.640Z,98.10
2018-11-26T17:25:48.431Z,97.07
2018-11-26T17:28:17.064Z,97.00
2018-11-26T17:30:45.871Z,97.29
2018-11-26T17:33:14.606Z,97.28
2018-11-26T17:35:43.318Z,96.78
2018-11-26T17:38:11.998Z,96.85
2018-11-26T17:40:41.096Z,97.26
2018-11-26T17:43:14.144Z,97.06
2018-11-26T17:45:43.162Z,97.01
2018-11-26T17:48:31.192Z,97.30
2018-11-26T17:50:59.843Z,97.45
2018-11-26T17:53:28.492Z,97.25
2018-11-26T17:55:57.473Z,96.77
2018-11-26T17:58:27.500Z,96.86
2018-11-26T18:01:19.314Z,97.01
2018-11-26T18:03:47.977Z,97.09
2018-11-26T18:06:16.795Z,97.38
2018-11-26T18:08:45.569Z,97.35
2018-11-26T18:11:14.240Z,97.41
2018-11-26T18:13:43.245Z,97.11
2018-11-26T18:16:31.262Z,97.40
2018-11-26T18:19:00.859Z,97.42
2018-11-26T18:24:39.449Z,97.36
2018-11-26T18:27:09.768Z,97.68
2018-11-26T18:30:17.810Z,97.58
2018-11-26T18:36:18.801Z,97.65
2018-11-26T18:38:48.084Z,97.73
2018-11-26T18:41:57.276Z,97.64
2018-11-26T18:44:46.521Z,97.43
2018-11-26T18:47:55.949Z,97.55
2018-11-26T18:51:09.354Z,97.07
2018-11-26T18:53:57.552Z,97.69
2018-11-26T18:57:05.585Z,97.78
2018-11-26T19:00:17.507Z,98.32
2018-11-26T19:02:47.398Z,98.29
2018-11-26T19:05:16.939Z,98.32
2018-11-26T19:08:05.237Z,97.96
2018-11-26T19:14:09.571Z,97.39
2018-11-26T19:17:25.946Z,96.98
2018-11-26T19:19:54.944Z,96.62
2018-11-26T19:22:49.429Z,96.85
2018-11-26T19:25:58.886Z,97.23
2018-11-26T19:31:21.932Z,97.71
2018-11-26T19:34:10.030Z,97.30
2018-11-26T19:36:58.072Z,97.57
2018-11-26T19:39:54.237Z,97.99
2018-11-26T19:43:04.503Z,97.33
2018-11-26T19:45:33.294Z,96.98
2018-11-26T19:48:02.094Z,97.00
2018-11-26T19:50:31.095Z,97.64
2018-11-26T19:53:21.689Z,98.52
2018-11-26T19:56:09.516Z,99.14
2018-11-26T19:59:02.531Z,99.30
2018-11-26T20:02:11.626Z,98.45
2018-11-26T20:05:00.672Z,97.78
2018-11-26T20:07:29.318Z,98.07
2018-11-26T20:09:58.016Z,98.79
2018-11-26T20:12:26.727Z,99.33
2018-11-26T20:14:55.455Z,99.84
2018-11-26T20:17:24.121Z,99.75
2018-11-26T20:19:52.868Z,99.43
2018-11-26T20:22:21.567Z,98.92
2018-11-26T20:24:50.281Z,99.03
2018-11-26T20:27:18.924Z,99.16
2018-11-26T20:29:47.870Z,99.16
2018-11-26T20:32:16.570Z,98.86
2018-11-26T20:34:45.322Z,98.88
2018-11-26T20:37:13.960Z,98.72
2018-11-26T20:39:42.781Z,98.82
2018-11-26T20:42:11.454Z,98.95
2018-11-26T20:44:40.150Z,99.29
2018-11-26T20:47:08.809Z,99.33
2018-11-26T20:49:37.530Z,99.21
2018-11-26T20:52:06.316Z,99.30
2018-11-26T20:54:34.950Z,99.52
2018-11-26T20:57:03.655Z,99.73
2018-11-26T20:59:32.331Z,99.98
2018-11-26T21:02:08.350Z,99.44
2018-11-26T21:04:37.413Z,99.50
2018-11-26T21:07:08.374Z,99.38
2018-11-26T21:09:37.411Z,99.31
2018-11-26T21:12:07.283Z,99.33
2018-11-26T21:14:36.001Z,99.24
2018-11-26T21:17:23.987Z,99.34
2018-11-26T21:19:52.753Z,99.32
2018-11-26T21:22:21.541Z,98.57
2018-11-26T21:24:50.273Z,98.24
2018-11-26T21:27:19.121Z,97.33
2018-11-26T21:29:47.810Z,97.24
2018-11-26T21:32:16.631Z,97.66
2018-11-26T21:34:46.915Z,98.62
2018-11-26T21:37:35.699Z,99.23
2018-11-26T21:40:04.663Z,99.37
2018-11-26T21:42:33.481Z,99.10
2018-11-26T21:45:02.203Z,98.86
2018-11-26T21:47:30.960Z,98.93
2018-11-26T21:49:59.621Z,99.17
2018-11-26T21:52:29.819Z,99.33
2018-11-26T21:55:18.840Z,99.56
2018-11-26T21:57:49.306Z,99.69
2018-11-26T22:00:19.309Z,100.00
2018-11-26T22:02:48.102Z,100.00
2018-11-26T22:05:16.853Z,100.00
2018-11-26T22:07:45.583Z,100.00
2018-11-26T22:13:23.369Z,100.00
2018-11-26T22:15:52.190Z,100.00
2018-11-26T22:18:20.929Z,100.00
2018-11-26T22:20:49.692Z,100.00
2018-11-26T22:23:37.688Z,100.00
2018-11-26T22:26:06.552Z,100.00
2018-11-26T22:28:35.502Z,100.00
2018-11-26T22:31:04.991Z,100.00
2018-11-26T22:36:41.901Z,100.00
2018-11-26T22:42:20.463Z,100.00
2018-11-26T22:44:49.228Z,100.00
2018-11-26T22:47:18.248Z,100.00
2018-11-26T22:49:47.158Z,100.00
2018-11-26T22:52:16.053Z,100.00
2018-11-26T22:54:44.872Z,100.00
2018-11-26T22:59:48.748Z,100.00
2018-11-26T23:02:17.418Z,100.00
2018-11-26T23:04:46.346Z,100.00
2018-11-26T23:07:15.053Z,100.00
2018-11-26T23:12:19.958Z,100.00
2018-11-26T23:14:48.749Z,100.00
2018-11-26T23:17:17.602Z,100.00
2018-11-26T23:19:46.683Z,100.00
2018-11-26T23:22:15.507Z,100.00
2018-11-26T23:25:03.762Z,100.00
2018-11-26T23:27:33.320Z,100.00
2018-11-26T23:30:30.487Z,100.00
2018-11-26T23:33:00.139Z,100.00
2018-11-26T23:35:29.080Z,100.00
2018-11-26T23:37:57.910Z,100.00
2018-11-26T23:40:26.876Z,100.00
2018-11-26T23:46:05.328Z,100.00
2018-11-26T23:48:34.203Z,100.00
2018-11-26T23:51:03.082Z,100.00
2018-11-26T23:53:32.020Z,100.00
2018-11-26T23:56:00.770Z,100.00
2018-11-26T23:58:29.485Z,100.00
